Rhodanus — PGBC — position and weather

sailwx.info

Track history (hours):
 
Tides and Currents Weather Stations Pressure Air Temp Water Temp Dewpoint Dewpoint Depression Visibility Wind Speed Wind Dir Waves Ship Positions

Rhodanus

Last reported at 2018-Jan-19 18:12 UTC. Time now 2018-Jan-24 01:47 UTC.
Position N 43°15' E 004°36'.

Length 89 m; draft 3 m.

Type: Ship. MMSI: 245848000.

Date/timePositionNaut miles runAvg speedWind from/ knotsBaromVisibWave heightAir tempDewpointWater temp
2018-Jan-19 18:12N 43°15' E 004°36'1 5.8
2018-Jan-19 18:00N 43°15' E 004°37'3 5.8
2018-Jan-19 17:31N 43°15' E 004°41'3 5.7
2018-Jan-19 17:00N 43°16' E 004°45'3 5.9
2018-Jan-19 16:31N 43°16' E 004°49'3 5.7
2018-Jan-19 15:59N 43°17' E 004°53'3 6.0
2018-Jan-19 15:30N 43°19' E 004°56'4 9.0
2018-Jan-19 15:00N 43°23' E 004°56'5 8.6
2018-Jan-19 14:28N 43°23' E 004°49'1 1.2
2018-Jan-19 13:54N 43°23' E 004°49'3 7.2
2018-Jan-19 13:30N 43°25' E 004°45'18 0.7
2018-Jan-18 11:58N 43°42' E 004°38'4 4.5
2018-Jan-18 10:58N 43°37' E 004°39'6 5.5
2018-Jan-18 09:58N 43°33' E 004°43'5 7.2
2018-Jan-18 09:20N 43°28' E 004°45'2 7.4
2018-Jan-18 09:00N 43°26' E 004°44'4 7.1
2018-Jan-18 08:29N 43°23' E 004°48'1 1.6
2018-Jan-18 08:00N 43°23' E 004°49'2 4.6
2018-Jan-18 07:30N 43°23' E 004°52'4 8.6
2018-Jan-18 07:00N 43°23' E 004°57'2 4.2
2018-Jan-18 06:30N 43°21' E 004°59'3 5.2
2018-Jan-18 06:00N 43°18' E 004°60'  
Track history (hours):
 
Tides and Currents Weather Stations Pressure Air Temp Water Temp Dewpoint Dewpoint Depression Visibility Wind Speed Wind Dir Waves Ship Positions

Rhodanus

Last reported at 2018-Jan-19 18:12 UTC. Time now 2018-Jan-24 01:47 UTC.
Position N 43°15' E 004°36'.

Length 89 m; draft 3 m.

Type: Ship. MMSI: 245848000.

Date/timePositionNaut miles runAvg speedWind from/ knotsBaromVisibWave heightAir tempDewpointWater temp
2018-Jan-19 18:12N 43°15' E 004°36'1 5.8
2018-Jan-19 18:00N 43°15' E 004°37'3 5.8
2018-Jan-19 17:31N 43°15' E 004°41'3 5.7
2018-Jan-19 17:00N 43°16' E 004°45'3 5.9
2018-Jan-19 16:31N 43°16' E 004°49'3 5.7
2018-Jan-19 15:59N 43°17' E 004°53'3 6.0
2018-Jan-19 15:30N 43°19' E 004°56'4 9.0
2018-Jan-19 15:00N 43°23' E 004°56'5 8.6
2018-Jan-19 14:28N 43°23' E 004°49'1 1.2
2018-Jan-19 13:54N 43°23' E 004°49'3 7.2
2018-Jan-19 13:30N 43°25' E 004°45'18 0.7
2018-Jan-18 11:58N 43°42' E 004°38'4 4.5
2018-Jan-18 10:58N 43°37' E 004°39'6 5.5
2018-Jan-18 09:58N 43°33' E 004°43'5 7.2
2018-Jan-18 09:20N 43°28' E 004°45'2 7.4
2018-Jan-18 09:00N 43°26' E 004°44'4 7.1
2018-Jan-18 08:29N 43°23' E 004°48'1 1.6
2018-Jan-18 08:00N 43°23' E 004°49'2 4.6
2018-Jan-18 07:30N 43°23' E 004°52'4 8.6
2018-Jan-18 07:00N 43°23' E 004°57'2 4.2
2018-Jan-18 06:30N 43°21' E 004°59'3 5.2
2018-Jan-18 06:00N 43°18' E 004°60'  

Dump ship's entire track history